Time;durP1;ratioP1;P1;durP2;ratioP2;P2;SDS_P1;SDS_P2;PMS_P1;PMS_P2;Temp;Humidity;BMP_temperature;BMP_pressure;BME280_temperature;BME280_humidity;BME280_pressure;Samples;Min_cycle;Max_cycle;Signal;HPM_P1;HPM_P2
2023/06/20 00:00:53;;;;;;;2.60;2.50;;;23.10;99.90;;;23.32;63.94;101082.53;5049829;28;20098;-66
2023/06/20 00:03:21;;;;;;;3.35;3.17;;;23.00;99.90;;;23.25;64.14;101082.81;5055044;28;20049;-66
2023/06/20 00:05:49;;;;;;;3.05;2.95;;;22.90;99.90;;;22.98;65.05;101086.97;5054716;28;20044;-65
2023/06/20 00:08:18;;;;;;;3.13;2.92;;;22.70;99.90;;;23.11;64.93;101088.06;5054920;28;20045;-66
2023/06/20 00:10:46;;;;;;;2.63;2.53;;;22.80;99.90;;;23.27;64.59;101086.31;5054889;28;20056;-66
2023/06/20 00:13:17;;;;;;;2.65;2.55;;;22.90;99.90;;;23.23;64.24;101081.13;5054775;28;20095;-66
2023/06/20 00:15:46;;;;;;;2.25;2.15;;;22.90;99.90;;;23.14;64.66;101085.22;5054842;28;20443;-66
2023/06/20 00:18:14;;;;;;;4.10;3.78;;;22.90;99.90;;;22.99;65.42;101082.44;5054560;28;20041;-66
2023/06/20 00:20:43;;;;;;;2.75;2.65;;;22.70;99.90;;;22.78;66.34;101086.25;5054363;28;20059;-67
2023/06/20 00:23:11;;;;;;;2.35;2.25;;;22.50;99.90;;;22.81;66.35;101089.66;5053318;28;20448;-66
2023/06/20 00:25:40;;;;;;;2.88;2.78;;;22.50;99.90;;;22.71;66.61;101092.88;5050589;28;20065;-66
2023/06/20 00:28:11;;;;;;;2.65;2.55;;;22.40;99.90;;;22.73;66.80;101083.78;5054259;28;20051;-66
2023/06/20 00:30:41;;;;;;;;;;;22.40;99.90;;;22.89;66.64;101083.88;5055012;28;20044;-66
2023/06/20 00:33:10;;;;;;;3.00;2.85;;;22.50;99.90;;;22.70;67.17;101077.69;5069847;28;19925;-66
2023/06/20 00:35:39;;;;;;;2.53;2.42;;;22.40;99.90;;;22.54;68.10;101076.66;5053042;28;20490;-66
2023/06/20 00:38:08;;;;;;;2.50;2.40;;;22.30;99.90;;;21.98;68.68;101002.19;5061601;28;20095;-65
2023/06/20 00:40:36;;;;;;;3.20;3.00;;;22.10;99.90;;;22.40;68.85;101070.16;5052833;28;20483;-66
2023/06/20 00:43:04;;;;;;;3.97;3.42;;;22.00;99.90;;;22.26;69.46;101072.63;5054261;28;20057;-67
2023/06/20 00:45:34;;;;;;;3.20;3.00;;;21.90;99.90;;;22.26;69.90;101069.94;5050034;28;20048;-67
2023/06/20 00:48:06;;;;;;;3.78;3.58;;;21.90;99.90;;;21.92;71.05;101053.69;5054247;28;20055;-66
2023/06/20 00:50:36;;;;;;;2.72;2.63;;;21.70;99.90;;;22.11;70.87;101059.03;5069366;28;20103;-66
2023/06/20 00:53:07;;;;;;;2.47;2.38;;;21.70;99.90;;;22.09;71.39;101061.81;5053634;28;20045;-65
2023/06/20 00:55:36;;;;;;;3.05;2.95;;;21.70;99.90;;;22.07;71.66;101052.94;5054033;28;20068;-67
2023/06/20 00:58:06;;;;;;;2.75;2.65;;;21.70;99.90;;;21.86;72.08;101056.66;5053667;28;20076;-65
2023/06/20 01:00:38;;;;;;;4.83;4.37;;;21.50;99.90;;;21.75;72.50;101058.09;5065897;28;20157;-66
2023/06/20 01:03:11;;;;;;;3.10;2.95;;;21.40;99.90;;;21.41;74.90;101050.69;5050707;28;20052;-66
2023/06/20 01:05:42;;;;;;;4.68;4.20;;;21.10;99.90;;;21.35;74.57;101057.25;5052448;28;20060;-67
2023/06/20 01:08:19;;;;;;;5.57;3.95;;;20.90;99.90;;;21.23;75.06;101032.72;5053613;28;20055;-67
2023/06/20 01:11:02;;;;;;;5.72;3.78;;;20.90;99.90;;;21.35;74.82;101059.09;5049840;28;20396;-66
2023/06/20 01:13:44;;;;;;;4.00;3.70;;;20.90;99.90;;;21.25;75.24;101052.38;5051014;28;20056;-67
2023/06/20 01:16:25;;;;;;;3.30;3.17;;;20.90;99.90;;;21.33;75.02;101055.59;5050110;28;20048;-66
2023/06/20 01:19:06;;;;;;;3.53;3.30;;;20.90;99.90;;;21.20;75.00;101017.56;5051697;28;20172;-66
2023/06/20 01:21:43;;;;;;;3.65;3.45;;;20.90;99.90;;;21.31;75.17;101049.41;5050779;28;20045;-65
2023/06/20 01:24:18;;;;;;;2.65;2.55;;;20.90;99.90;;;21.33;75.24;101051.06;5053689;28;20439;-65
2023/06/20 01:26:54;;;;;;;2.70;2.60;;;20.90;99.90;;;21.26;75.82;101044.22;5053387;28;20874;-65
2023/06/20 01:29:32;;;;;;;3.35;3.20;;;20.80;99.90;;;20.54;75.65;100926.44;5050439;28;20045;-65
2023/06/20 01:32:07;;;;;;;6.95;4.97;;;20.80;99.90;;;20.97;75.93;101030.28;5052188;28;20056;-65
2023/06/20 01:34:42;;;;;;;3.55;3.35;;;20.60;99.90;;;21.10;75.29;101028.84;5049540;28;20406;-67
2023/06/20 01:37:15;;;;;;;3.88;3.67;;;20.70;99.90;;;21.08;75.48;101041.50;5052206;28;20052;-65
2023/06/20 01:39:47;;;;;;;3.30;3.10;;;20.60;99.90;;;21.15;75.95;101034.88;5053153;28;20049;-67
2023/06/20 01:42:19;;;;;;;3.70;3.50;;;20.70;99.90;;;21.04;75.22;101037.19;5051615;28;20049;-65
2023/06/20 01:44:53;;;;;;;3.28;3.05;;;20.60;99.90;;;21.22;74.60;101033.66;5048206;28;20045;-65
2023/06/20 01:47:24;;;;;;;2.70;2.60;;;20.80;99.90;;;21.07;74.84;101024.47;5053471;28;20057;-65
2023/06/20 01:49:54;;;;;;;7.63;6.18;;;20.70;99.90;;;21.14;74.02;101034.00;5053233;28;20110;-66
2023/06/20 01:52:24;;;;;;;3.00;2.90;;;20.70;99.90;;;21.20;73.94;101043.59;5053282;28;20061;-66
2023/06/20 01:54:57;;;;;;;3.45;3.33;;;20.80;99.90;;;21.28;73.31;101031.56;5053279;28;20045;-65
2023/06/20 01:57:28;;;;;;;2.95;2.85;;;20.80;99.90;;;21.05;72.64;100945.66;5047543;28;20335;-67
2023/06/20 01:59:57;;;;;;;2.83;2.72;;;21.00;99.90;;;21.58;72.05;101028.41;5053315;28;20037;-65
2023/06/20 02:02:28;;;;;;;2.88;2.70;;;21.20;99.90;;;21.72;71.02;101021.41;5051302;28;20052;-65
2023/06/20 02:04:58;;;;;;;2.75;2.65;;;21.30;99.90;;;21.73;70.59;101023.16;5052946;28;20223;-65
2023/06/20 02:07:28;;;;;;;3.28;3.08;;;21.40;99.90;;;21.79;70.31;101022.00;5051596;28;20134;-65
2023/06/20 02:09:59;;;;;;;2.80;2.70;;;21.40;99.90;;;21.98;69.43;101029.16;5052833;28;20080;-66
2023/06/20 02:12:28;;;;;;;2.97;2.83;;;21.60;99.90;;;21.94;69.20;101035.63;5064872;28;20069;-66
2023/06/20 02:14:58;;;;;;;2.85;2.75;;;21.60;99.90;;;21.90;69.46;101025.94;5049177;28;20049;-65
2023/06/20 02:17:31;;;;;;;4.13;3.92;;;21.60;99.90;;;21.93;69.20;101025.78;5052651;28;20095;-67
2023/06/20 02:20:00;;;;;;;3.53;3.35;;;21.60;99.90;;;21.41;69.46;100948.41;5052649;28;20059;-68
2023/06/20 02:22:29;;;;;;;4.03;3.72;;;21.50;99.90;;;21.55;69.84;101024.91;5052404;28;20060;-66
2023/06/20 02:25:05;;;;;;;2.83;2.72;;;21.20;99.90;;;21.67;70.53;101031.53;5052456;28;20076;-66
2023/06/20 02:27:33;;;;;;;2.40;2.30;;;21.20;99.90;;;21.67;70.07;101028.84;5048810;28;20049;-66
2023/06/20 02:30:04;;;;;;;4.43;4.07;;;21.20;99.90;;;21.42;70.84;100996.81;5052421;28;20673;-65
2023/06/20 02:32:33;;;;;;;4.22;3.25;;;21.10;99.90;;;21.24;71.43;101002.16;5052164;28;20056;-65
2023/06/20 02:35:04;;;;;;;4.50;4.13;;;21.00;99.90;;;21.42;71.52;101014.78;5052293;28;20044;-67
2023/06/20 02:37:34;;;;;;;2.60;2.50;;;21.00;99.90;;;21.50;70.79;101013.47;5052296;28;20095;-66
2023/06/20 02:40:09;;;;;;;2.78;2.67;;;21.10;99.90;;;21.62;70.40;101005.78;5050900;28;20126;-65
2023/06/20 02:42:37;;;;;;;3.47;3.28;;;21.20;99.90;;;21.61;69.90;100996.81;5052303;28;20406;-66
2023/06/20 02:45:07;;;;;;;3.05;2.92;;;21.30;99.90;;;21.54;69.83;100990.84;5050773;28;20041;-65
2023/06/20 02:47:48;;;;;;;8.90;3.35;;;21.30;99.90;;;21.50;69.90;100966.84;5051910;28;20045;-66
2023/06/20 02:50:26;;;;;;;2.30;2.20;;;21.30;99.90;;;21.40;69.71;100919.78;5052153;28;20053;-67
2023/06/20 02:53:13;;;;;;;3.05;2.92;;;21.40;99.90;;;21.76;69.58;100987.97;5049444;28;20073;-66
2023/06/20 02:55:49;;;;;;;4.00;3.70;;;21.50;99.90;;;21.72;69.35;100988.22;5046830;28;20095;-65
2023/06/20 02:58:22;;;;;;;2.88;2.78;;;21.40;99.90;;;21.45;69.38;100918.59;5049675;28;20371;-65
2023/06/20 03:00:53;;;;;;;2.53;2.42;;;21.40;99.90;;;21.84;69.57;100988.53;5059393;28;20040;-65
2023/06/20 03:03:26;;;;;;;2.20;2.10;;;21.50;99.90;;;21.79;69.21;100976.19;5051922;28;20049;-65
2023/06/20 03:05:58;;;;;;;3.67;3.38;;;21.50;99.90;;;21.68;69.86;100992.88;5051992;28;20343;-66
2023/06/20 03:08:29;;;;;;;2.58;2.47;;;21.30;99.90;;;21.72;70.36;100994.47;5069057;28;20528;-65
2023/06/20 03:11:00;;;;;;;2.38;2.28;;;21.30;99.90;;;21.73;70.32;100995.34;5054743;28;20490;-66
2023/06/20 03:13:28;;;;;;;4.22;3.13;;;21.30;99.90;;;21.77;69.95;100988.88;5054769;28;20056;-65
2023/06/20 03:15:58;;;;;;;2.10;2.00;;;21.30;99.90;;;21.74;70.18;100999.81;5054821;28;20118;-65
2023/06/20 03:18:29;;;;;;;3.03;2.83;;;21.30;99.90;;;21.85;69.72;100998.38;5067578;28;20136;-66
2023/06/20 03:20:58;;;;;;;3.15;2.67;;;21.40;99.90;;;21.76;70.08;100996.06;5050803;28;20053;-68
2023/06/20 03:23:26;;;;;;;2.85;2.67;;;21.30;99.90;;;21.45;69.66;100920.41;5054366;28;20095;-67
2023/06/20 03:25:55;;;;;;;3.03;2.92;;;21.40;99.90;;;21.81;69.79;100999.47;5070921;28;20076;-66
2023/06/20 03:28:26;;;;;;;2.65;2.55;;;21.40;99.90;;;21.51;70.07;100955.13;5054372;28;20068;-66
2023/06/20 03:30:57;;;;;;;2.83;2.72;;;21.40;99.90;;;21.84;69.69;100988.53;5055434;28;20382;-66
2023/06/20 03:33:27;;;;;;;3.13;2.97;;;21.50;99.90;;;21.88;69.49;100995.50;5054281;28;20067;-67
2023/06/20 03:35:57;;;;;;;2.60;2.50;;;21.50;99.90;;;21.90;69.58;100993.63;5067593;28;20077;-67
2023/06/20 03:38:26;;;;;;;4.53;3.00;;;21.50;99.90;;;21.86;69.56;101002.78;5067058;28;20049;-66
2023/06/20 03:40:55;;;;;;;3.60;3.40;;;21.50;99.90;;;21.71;70.25;100998.13;5054111;28;20405;-65
2023/06/20 03:43:25;;;;;;;2.58;2.47;;;21.40;99.90;;;21.38;70.06;100930.63;5054031;28;20363;-66
2023/06/20 03:45:54;;;;;;;3.85;3.45;;;21.40;99.90;;;21.84;70.14;101001.13;5054132;28;20385;-66
2023/06/20 03:48:22;;;;;;;2.83;2.72;;;21.40;99.90;;;21.92;69.94;101001.63;5055309;28;20049;-65
2023/06/20 03:50:51;;;;;;;2.70;2.58;;;21.50;99.90;;;22.01;69.87;101004.72;5053830;28;20041;-66
2023/06/20 03:53:20;;;;;;;3.10;3.00;;;21.60;99.90;;;21.93;69.86;101020.41;5053842;28;20085;-66
2023/06/20 03:55:48;;;;;;;2.20;2.10;;;21.60;99.90;;;21.98;70.46;101006.72;5053877;28;20080;-66
2023/06/20 03:58:17;;;;;;;2.90;2.80;;;21.50;99.90;;;21.92;69.99;100993.53;5054849;28;20037;-68
2023/06/20 04:00:47;;;;;;;2.75;2.65;;;21.60;99.90;;;22.08;69.51;101008.88;5049852;28;20037;-66
2023/06/20 04:03:16;;;;;;;3.17;3.08;;;21.70;99.90;;;22.06;69.27;101005.41;5067211;28;20068;-66
2023/06/20 04:05:44;;;;;;;2.70;2.60;;;21.70;99.90;;;22.11;69.31;101003.34;5053802;28;20056;-67
2023/06/20 04:08:13;;;;;;;2.95;2.85;;;21.70;99.90;;;22.28;68.79;101007.88;5053667;28;20083;-66
2023/06/20 04:10:42;;;;;;;2.85;2.70;;;21.90;99.90;;;22.25;68.91;101003.53;5053635;28;20053;-66
2023/06/20 04:13:10;;;;;;;2.75;2.65;;;21.90;99.90;;;22.20;68.64;101002.88;5070308;28;20110;-67
2023/06/20 04:15:39;;;;;;;2.80;2.70;;;21.90;99.90;;;22.28;68.58;101011.44;5054898;28;20370;-66
2023/06/20 04:18:08;;;;;;;2.30;2.20;;;21.90;99.90;;;22.26;68.64;101010.66;5053661;28;20048;-67
2023/06/20 04:20:37;;;;;;;2.60;2.50;;;21.90;99.90;;;22.27;68.84;101009.72;5053875;28;20048;-66
2023/06/20 04:23:06;;;;;;;2.33;2.22;;;21.90;99.90;;;22.20;69.76;101000.16;5050586;28;20033;-66
2023/06/20 04:25:34;;;;;;;2.80;2.70;;;21.80;99.90;;;22.22;69.54;100997.41;5050976;28;20051;-67
2023/06/20 04:28:03;;;;;;;2.42;2.33;;;21.80;99.90;;;22.09;69.82;101002.53;5053484;28;20052;-66
2023/06/20 04:30:44;;;;;;;2.63;2.53;;;21.70;99.90;;;21.84;70.98;100993.91;5053543;28;20414;-67
2023/06/20 04:33:14;;;;;;;2.50;2.40;;;21.40;99.90;;;21.98;70.43;100995.94;5054637;28;20123;-67
2023/06/20 04:35:43;;;;;;;2.50;2.40;;;21.50;99.90;;;22.11;70.00;100989.84;5046174;28;20115;-67
2023/06/20 04:38:13;;;;;;;3.05;2.95;;;21.70;99.90;;;22.27;69.65;100985.47;5066702;28;20419;-67
2023/06/20 04:40:42;;;;;;;3.08;2.97;;;21.80;99.90;;;22.42;68.94;100967.59;5053098;28;20163;-67
2023/06/20 04:43:11;;;;;;;2.38;2.28;;;22.00;99.90;;;22.51;68.44;100966.28;5053069;28;20056;-66
2023/06/20 04:45:39;;;;;;;2.15;2.05;;;22.20;99.90;;;22.63;67.96;100976.47;5053268;28;20409;-66
2023/06/20 04:48:08;;;;;;;2.63;2.53;;;22.30;99.90;;;22.59;67.83;100975.72;5052970;28;20049;-66
2023/06/20 04:50:39;;;;;;;2.20;2.10;;;22.30;99.90;;;22.52;67.62;100955.41;5053020;28;20103;-66
2023/06/20 04:53:08;;;;;;;2.35;2.25;;;22.30;99.90;;;22.77;67.36;100977.47;5054476;28;20053;-66
2023/06/20 04:55:38;;;;;;;4.07;3.72;;;22.40;99.90;;;22.38;68.63;100969.59;5054234;28;20454;-66
2023/06/20 04:58:07;;;;;;;3.00;2.90;;;22.10;99.90;;;22.41;68.91;100982.06;5054080;28;20041;-66
2023/06/20 05:00:37;;;;;;;2.80;2.70;;;22.00;99.90;;;22.21;69.76;100974.97;5054097;28;20049;-66
2023/06/20 05:03:06;;;;;;;2.47;2.37;;;21.90;99.90;;;22.31;69.75;100968.19;5052709;28;20048;-66
2023/06/20 05:05:35;;;;;;;2.85;2.65;;;21.90;99.90;;;22.35;69.55;100975.16;5052959;28;20088;-66
2023/06/20 05:08:05;;;;;;;2.75;2.65;;;21.90;99.90;;;22.32;69.37;100969.91;5052593;28;20060;-65
2023/06/20 05:10:33;;;;;;;2.70;2.60;;;21.90;99.90;;;21.89;69.70;100884.09;5053986;28;20440;-65
2023/06/20 05:13:01;;;;;;;5.10;3.83;;;22.00;99.90;;;22.14;70.47;100967.28;5053513;28;20056;-66
2023/06/20 05:15:30;;;;;;;2.47;2.38;;;21.80;99.90;;;22.18;70.59;100964.34;5053544;28;20106;-65
2023/06/20 05:17:58;;;;;;;2.58;2.47;;;21.80;99.90;;;22.29;70.16;100966.50;5049682;28;20136;-65
2023/06/20 05:20:27;;;;;;;2.85;2.75;;;21.90;99.90;;;22.20;70.22;100962.44;5053551;28;20140;-66
2023/06/20 05:22:56;;;;;;;2.65;2.55;;;21.90;99.90;;;21.66;70.20;100857.44;5053230;28;20048;-66
2023/06/20 05:25:25;;;;;;;2.45;2.35;;;21.90;99.90;;;22.37;70.07;100967.88;5053287;28;20516;-66
2023/06/20 05:27:54;;;;;;;2.70;2.60;;;22.00;99.90;;;22.47;69.85;100960.19;5052076;28;20496;-66
2023/06/20 05:30:23;;;;;;;2.58;2.47;;;22.00;99.90;;;22.35;70.30;100945.50;5053159;28;20051;-67
2023/06/20 05:32:52;;;;;;;2.45;2.35;;;22.00;99.90;;;22.45;70.07;100952.13;5052028;28;20049;-66
2023/06/20 05:35:21;;;;;;;2.42;2.33;;;22.10;99.90;;;22.42;70.22;100946.91;5052997;28;20072;-66
2023/06/20 05:37:50;;;;;;;3.03;2.92;;;22.10;99.90;;;22.34;70.37;100941.06;5053237;28;20041;-66
2023/06/20 05:40:18;;;;;;;2.58;2.47;;;22.00;99.90;;;22.37;70.62;100940.03;5052902;28;20136;-67
2023/06/20 05:42:48;;;;;;;3.95;3.70;;;22.00;99.90;;;22.40;70.04;100938.03;5064625;28;20049;-64
2023/06/20 05:45:17;;;;;;;2.47;2.38;;;22.00;99.90;;;22.39;70.11;100938.13;5053358;28;20041;-65
2023/06/20 05:47:45;;;;;;;2.55;2.45;;;22.10;99.90;;;22.48;70.54;100936.75;5068307;28;20398;-65
2023/06/20 05:50:14;;;;;;;3.17;2.90;;;22.10;99.90;;;22.49;70.61;100938.53;5052735;28;20051;-65
2023/06/20 05:52:43;;;;;;;3.55;3.35;;;22.10;99.90;;;22.59;70.28;100937.97;5052562;28;20494;-64
2023/06/20 05:55:12;;;;;;;3.20;3.00;;;22.20;99.90;;;22.13;72.12;100942.16;5052607;28;20045;-64
2023/06/20 05:57:40;;;;;;;4.57;4.15;;;21.80;99.90;;;21.95;73.06;100943.06;5052832;28;20044;-65
2023/06/20 06:00:12;;;;;;;3.38;3.13;;;21.70;99.90;;;22.04;73.44;100945.31;5052839;28;20091;-64
2023/06/20 06:02:47;;;;;;;3.78;3.58;;;21.60;99.90;;;21.83;74.80;100949.09;5052492;28;20053;-65
2023/06/20 06:05:16;;;;;;;3.85;3.58;;;21.40;99.90;;;21.84;74.43;100942.75;5052399;28;20044;-66
2023/06/20 06:07:44;;;;;;;3.05;2.95;;;21.40;99.90;;;21.99;75.26;100955.44;5052392;28;20095;-64
2023/06/20 06:10:13;;;;;;;3.38;3.17;;;21.50;99.90;;;22.02;75.15;100960.69;5052577;28;20094;-65
2023/06/20 06:12:41;;;;;;;3.03;2.92;;;21.60;99.90;;;22.05;75.19;100965.03;5052259;28;20400;-66
2023/06/20 06:15:13;;;;;;;4.03;3.80;;;21.60;99.90;;;21.93;75.48;100969.22;5052594;28;20044;-64
2023/06/20 06:17:41;;;;;;;4.28;3.97;;;21.50;99.90;;;22.04;75.31;100955.22;5052317;28;20064;-66
2023/06/20 06:20:14;;;;;;;2.92;2.83;;;21.60;99.90;;;22.10;75.27;100957.59;5047479;28;20041;-65
2023/06/20 06:22:42;;;;;;;14.60;4.72;;;21.60;99.90;;;22.14;75.17;100943.88;5052291;28;20056;-65
2023/06/20 06:25:11;;;;;;;3.53;3.33;;;21.70;99.90;;;22.24;75.29;100937.06;5052147;28;20045;-64
2023/06/20 06:27:39;;;;;;;3.45;3.13;;;21.80;99.90;;;22.39;75.37;100935.44;5052120;28;20052;-64
2023/06/20 06:30:08;;;;;;;10.93;3.80;;;21.90;99.90;;;22.57;74.37;100933.63;5052157;28;20552;-65
2023/06/20 06:32:39;;;;;;;4.45;3.50;;;22.10;99.90;;;22.28;76.13;100930.59;5052351;28;20461;-66
2023/06/20 06:35:10;;;;;;;7.03;5.65;;;21.90;99.90;;;22.19;75.17;100931.06;5052060;28;20123;-67
2023/06/20 06:37:41;;;;;;;5.00;4.60;;;21.80;99.90;;;22.27;75.71;100923.47;5048307;28;20049;-68
2023/06/20 06:40:10;;;;;;;3.58;3.33;;;21.80;99.90;;;21.94;74.54;100849.75;5052148;28;20108;-67
2023/06/20 06:42:39;;;;;;;3.95;3.75;;;21.90;99.90;;;22.29;75.83;100929.66;5051511;28;20052;-68
2023/06/20 06:45:09;;;;;;;5.15;4.30;;;21.80;99.90;;;22.38;74.93;100923.78;5052080;28;20406;-67
2023/06/20 06:47:39;;;;;;;3.72;3.53;;;21.80;99.90;;;22.41;76.40;100912.81;5051886;28;20055;-67
2023/06/20 06:50:08;;;;;;;2.95;2.80;;;22.00;99.90;;;22.50;75.45;100897.09;5052124;28;20045;-67
2023/06/20 06:52:37;;;;;;;3.10;2.90;;;22.00;99.90;;;22.81;75.04;100902.63;5051553;28;20387;-67
2023/06/20 06:55:08;;;;;;;8.40;5.43;;;22.30;99.90;;;22.64;74.58;100899.97;5048465;28;20064;-68
2023/06/20 06:57:36;;;;;;;8.23;5.07;;;22.20;99.90;;;22.59;73.71;100893.97;5052040;28;20291;-67
2023/06/20 07:00:11;;;;;;;8.77;5.78;;;22.20;99.90;;;22.54;73.89;100898.69;5052013;28;20091;-67
2023/06/20 07:02:41;;;;;;;5.28;4.85;;;22.00;99.90;;;21.90;74.51;100771.84;5051965;28;20473;-67
2023/06/20 07:05:11;;;;;;;3.40;3.20;;;22.00;99.90;;;22.51;74.41;100891.66;5051725;28;20136;-67
2023/06/20 07:07:39;;;;;;;4.20;4.00;;;22.00;99.90;;;21.97;74.70;100773.28;5051733;28;20041;-67
2023/06/20 07:10:09;;;;;;;6.22;4.13;;;22.10;99.90;;;22.63;74.73;100898.25;5051694;28;20052;-67
2023/06/20 07:12:38;;;;;;;14.13;6.15;;;22.20;99.90;;;22.40;74.25;100900.28;5048231;28;20099;-67
2023/06/20 07:15:08;;;;;;;3.33;3.22;;;21.90;99.90;;;22.67;75.73;100891.72;5050655;28;20058;-67
2023/06/20 07:17:36;;;;;;;2.63;2.53;;;22.10;99.90;;;22.77;74.26;100901.94;5051809;28;20825;-66
2023/06/20 07:20:09;;;;;;;3.60;3.28;;;22.30;99.90;;;22.96;74.13;100909.88;5050621;28;20132;-67
2023/06/20 07:22:38;;;;;;;5.15;4.63;;;22.40;99.90;;;23.09;72.63;100902.88;5051594;28;20040;-68
2023/06/20 07:25:08;;;;;;;4.43;4.18;;;22.60;99.90;;;23.30;73.14;100912.50;5051590;28;20052;-67
2023/06/20 07:27:37;;;;;;;4.10;3.88;;;22.80;99.90;;;23.20;73.19;100909.44;5051909;28;20041;-67
2023/06/20 07:30:07;;;;;;;4.40;4.00;;;22.80;99.90;;;23.20;72.75;100917.53;5051911;28;20048;-67
2023/06/20 07:32:35;;;;;;;4.55;4.22;;;22.80;99.90;;;23.44;72.50;100923.38;5052142;28;20049;-67
2023/06/20 07:35:06;;;;;;;5.22;4.75;;;23.00;99.90;;;23.50;71.21;100924.91;5052144;28;20071;-68
2023/06/20 07:37:34;;;;;;;3.13;3.03;;;23.10;99.90;;;23.57;71.67;100919.06;5051917;28;20053;-68
2023/06/20 07:40:06;;;;;;;6.78;5.72;;;23.10;99.90;;;23.16;70.49;100853.00;5051941;28;20045;-67
2023/06/20 07:42:34;;;;;;;5.38;4.85;;;23.20;99.90;;;23.57;71.48;100937.97;5051661;28;20077;-67
2023/06/20 07:45:03;;;;;;;3.58;3.38;;;23.10;99.90;;;23.88;71.11;100927.16;5051687;28;20073;-67
2023/06/20 07:47:31;;;;;;;5.35;3.90;;;23.30;99.90;;;24.06;72.00;100930.63;5051642;28;20415;-67
2023/06/20 07:50:00;;;;;;;3.78;3.47;;;23.50;99.90;;;23.92;70.56;100928.72;5047837;28;20351;-68
2023/06/20 07:52:31;;;;;;;11.13;4.13;;;23.50;99.90;;;24.09;70.26;100925.03;5051427;28;20152;-67
2023/06/20 07:55:01;;;;;;;15.30;3.97;;;23.60;99.90;;;23.99;69.35;100912.97;5052521;28;20107;-66
2023/06/20 07:57:30;;;;;;;2.95;2.75;;;23.60;99.90;;;24.04;69.77;100914.47;5055302;28;20065;-67
2023/06/20 07:59:58;;;;;;;6.43;3.45;;;23.60;99.90;;;24.42;69.81;100924.84;5055294;28;20041;-67
2023/06/20 08:02:28;;;;;;;3.15;2.95;;;23.80;99.90;;;24.31;68.75;100924.63;5055008;28;20056;-67
2023/06/20 08:04:57;;;;;;;3.67;3.47;;;23.90;99.90;;;24.62;69.12;100927.22;5054980;28;20529;-67
2023/06/20 08:07:25;;;;;;;6.18;4.70;;;24.10;99.90;;;24.55;67.54;100934.81;5055145;28;20079;-67
2023/06/20 08:09:55;;;;;;;4.68;4.20;;;24.10;99.90;;;24.21;67.65;100853.13;5051285;28;20047;-68
2023/06/20 08:12:24;;;;;;;3.67;3.42;;;24.10;99.90;;;25.02;68.85;100937.34;5054957;28;20483;-67
2023/06/20 08:14:52;;;;;;;2.40;2.30;;;24.40;99.90;;;24.94;66.89;100931.53;5070202;28;20080;-67
2023/06/20 08:17:21;;;;;;;2.78;2.63;;;24.40;99.90;;;25.29;67.10;100926.56;5054788;28;20056;-66
2023/06/20 08:19:49;;;;;;;2.75;2.55;;;24.80;99.90;;;25.44;66.79;100917.47;5054507;28;20403;-67
2023/06/20 08:22:18;;;;;;;1.98;1.88;;;24.90;99.90;;;25.83;66.40;100923.88;5054781;28;20049;-68
2023/06/20 08:24:46;;;;;;;4.45;3.63;;;25.40;99.90;;;25.74;65.52;100921.78;5054216;28;20146;-67
2023/06/20 08:27:16;;;;;;;3.92;3.63;;;25.40;99.90;;;25.82;64.20;100922.13;5054358;28;20083;-67
2023/06/20 08:29:44;;;;;;;8.90;3.60;;;25.40;99.90;;;25.68;64.88;100918.59;5054654;28;20045;-68
2023/06/20 08:32:13;;;;;;;3.83;3.45;;;25.30;99.90;;;25.86;63.95;100901.13;5054614;28;20052;-67
2023/06/20 08:34:41;;;;;;;2.92;2.72;;;25.50;99.90;;;25.71;64.52;100932.81;5050899;28;20423;-67
2023/06/20 08:37:10;;;;;;;4.13;3.67;;;25.30;99.90;;;25.03;63.78;100825.34;5054157;28;20045;-67
2023/06/20 08:39:39;;;;;;;4.97;3.58;;;25.20;99.90;;;25.51;63.85;100910.72;5052970;28;20041;-67
2023/06/20 08:42:08;;;;;;;2.83;2.72;;;25.10;99.90;;;25.97;65.53;100905.81;5054215;28;20045;-67
2023/06/20 08:44:38;;;;;;;2.15;2.05;;;25.40;99.90;;;26.14;64.64;100909.16;5054103;28;20151;-67
2023/06/20 08:47:23;;;;;;;5.20;3.78;;;25.60;99.90;;;26.05;63.43;100917.88;5051455;28;20115;-67
2023/06/20 08:49:52;;;;;;;4.60;4.30;;;25.60;99.90;;;25.96;62.41;100906.81;5054228;28;20053;-67
2023/06/20 08:52:29;;;;;;;1.80;1.80;;;25.50;99.90;;;26.06;63.27;100903.38;5086108;28;20057;-68
2023/06/20 08:54:58;;;;;;;4.63;4.22;;;25.50;99.90;;;25.97;63.24;100836.19;5052811;28;20471;-67
2023/06/20 08:57:27;;;;;;;13.77;3.40;;;25.90;99.90;;;25.98;61.61;100899.44;5052743;28;20437;-67
2023/06/20 09:00:00;;;;;;;3.38;3.15;;;25.60;99.90;;;26.12;63.43;100888.53;5048836;28;20548;-67
2023/06/20 09:02:28;;;;;;;3.15;2.95;;;25.70;99.90;;;26.20;62.06;100899.72;5053989;28;20048;-67
2023/06/20 09:05:04;;;;;;;3.13;2.92;;;25.70;99.90;;;26.27;61.35;100896.47;5053493;28;20451;-67
2023/06/20 09:07:41;;;;;;;2.22;2.13;;;25.80;99.90;;;26.27;62.45;100909.16;5053340;28;20055;-66
2023/06/20 09:10:13;;;;;;;1.80;1.80;;;25.70;99.90;;;26.51;61.93;100899.34;5049121;28;20041;-67
2023/06/20 09:12:49;;;;;;;2.10;2.00;;;25.90;99.90;;;26.82;61.21;100898.97;5052460;28;20052;-67
2023/06/20 09:15:22;;;;;;;2.13;2.03;;;26.30;99.90;;;27.12;61.69;100904.06;5052383;28;20143;-67
2023/06/20 09:17:51;;;;;;;1.60;1.60;;;26.70;99.90;;;27.08;60.47;100907.97;5053460;28;20044;-66
2023/06/20 09:20:21;;;;;;;1.50;1.50;;;26.70;99.90;;;27.09;60.37;100906.97;5049959;28;20053;-67
2023/06/20 09:22:49;;;;;;;2.53;2.38;;;26.70;99.90;;;26.63;58.89;100825.22;5053603;28;20041;-67
2023/06/20 09:25:22;;;;;;;2.00;1.90;;;26.80;99.90;;;26.93;60.55;100918.06;5053484;28;20128;-67
2023/06/20 09:27:52;;;;;;;2.80;2.58;;;26.60;99.90;;;26.81;58.66;100845.63;5052212;28;20048;-67
2023/06/20 09:30:24;;;;;;;2.63;2.53;;;26.80;99.90;;;27.29;59.39;100909.13;5053231;28;20072;-67
2023/06/20 09:32:54;;;;;;;2.33;2.22;;;27.00;99.90;;;27.33;57.78;100907.94;5060369;28;20552;-67
2023/06/20 09:35:23;;;;;;;4.20;3.42;;;27.00;99.90;;;27.24;58.66;100920.31;5049528;28;20041;-67
2023/06/20 09:37:53;;;;;;;5.20;2.70;;;26.90;99.90;;;27.15;57.34;100917.41;5053390;28;20111;-67
2023/06/20 09:40:22;;;;;;;3.00;2.60;;;26.80;99.90;;;27.30;56.65;100919.00;5053304;28;20045;-67
2023/06/20 09:42:58;;;;;;;3.78;3.28;;;27.00;99.90;;;26.40;56.71;100834.97;5053161;28;20368;-67
2023/06/20 09:45:28;;;;;;;2.58;2.38;;;26.60;99.90;;;26.87;57.71;100917.66;5052797;28;20095;-67
2023/06/20 09:47:58;;;;;;;1.52;1.52;;;26.40;99.90;;;27.15;57.81;100907.41;5052870;28;20398;-67
2023/06/20 09:50:29;;;;;;;1.60;1.60;;;26.70;99.90;;;27.43;58.03;100901.72;5049195;28;20052;-67
2023/06/20 09:53:05;;;;;;;3.60;3.30;;;27.00;99.90;;;27.50;58.52;100919.31;5051265;28;20061;-67
2023/06/20 09:55:36;;;;;;;2.60;2.47;;;27.10;99.90;;;27.52;57.72;100909.22;5052772;28;20166;-69
2023/06/20 09:58:05;;;;;;;3.42;2.08;;;27.20;99.90;;;27.58;58.62;100886.97;5052730;28;20490;-66
2023/06/20 10:00:38;;;;;;;3.97;3.58;;;27.20;99.90;;;27.52;56.42;100919.22;5052615;28;20041;-67
2023/06/20 10:03:09;;;;;;;2.67;2.47;;;27.10;99.90;;;27.37;56.71;100902.16;5049313;28;20121;-67
2023/06/20 10:05:39;;;;;;;1.60;1.60;;;27.10;99.90;;;27.47;56.46;100897.78;5052332;28;20045;-67
2023/06/20 10:08:08;;;;;;;4.85;4.03;;;27.10;99.90;;;27.29;59.44;100903.69;5052581;28;20102;-66
2023/06/20 10:10:37;;;;;;;4.20;3.60;;;26.90;99.90;;;27.30;58.09;100889.97;5052437;28;20052;-67
2023/06/20 10:13:06;;;;;;;2.90;2.67;;;26.90;99.90;;;26.70;57.57;100807.53;5051375;28;20503;-66
2023/06/20 10:15:36;;;;;;;9.65;3.17;;;26.80;99.90;;;27.37;58.11;100879.56;5052404;28;20128;-66
2023/06/20 10:18:19;;;;;;;4.88;3.72;;;26.90;99.90;;;27.36;58.75;100873.25;5051930;28;20076;-67
2023/06/20 10:20:48;;;;;;;2.35;2.25;;;26.80;99.90;;;27.54;57.65;100880.06;5050803;28;20394;-66
2023/06/20 10:23:20;;;;;;;2.28;2.17;;;27.10;99.90;;;27.79;58.77;100879.09;5052206;28;20044;-66
2023/06/20 10:25:53;;;;;;;4.15;3.30;;;27.30;99.90;;;27.78;57.15;100884.66;5052277;28;20045;-67